Terminal Aerodrome Forecast
Issued by NWS

Home | Current Version | Previous Version | Graphics & Text | Print | Product List | Glossary On
Versions: 1 2 3 4 5 6 7 8 9 10 11 12 13 14 15 16 17 18 19 20 21
000
FTUS41 KCLE 010400 AAB
TAFFDY
TAF AMD
KFDY 010400Z 0104/0124 01006KT P6SM SCT011 BKN025
     FM010700 02004KT 5SM BR BKN018
     FM011000 01002KT 2SM BR BKN011
      TEMPO 0110/0114 3/4SM BR BKN008
     FM011400 06003KT 4SM BR OVC012
     FM011600 07004KT P6SM BKN022=

USA.gov is the U.S. government's official web portal to all federal, state and local government web resources and services.